greatcall.com alexa rank chart, greatcall.com alexa rank daily changes

greatcall.com alexa rank chart, greatcall.com alexa rank daily changes

greatcall.com
Actual rank:
119 702

RANK HISTORY

Date Rank Diff
2017/02/26 119 702 -678
2017/02/25 120 380 +965
2017/02/24 119 415 +2 856
2017/02/23 116 559 -521
2017/02/22 117 080 -2 258
2017/02/21 119 338 -944
2017/02/20 120 282 -2 252
2017/02/19 122 534 -533
2017/02/18 123 067 -1 206
2017/02/17 124 273 +1 119
2017/02/16 123 154 +41
2017/02/15 123 113 +1 494
2017/02/14 121 619 -620
2017/02/13 122 239 +2 086
2017/02/12 120 153 +836
2017/02/11 119 317 -1 868
2017/02/10 121 185 +1 167
2017/02/09 120 018 +2 475
2017/02/08 117 543 +1 200
2017/02/07 116 343 -843
2017/02/06 117 186 -2 708
2017/02/05 119 894 -563
2017/02/04 120 457 -1 529
2017/02/03 121 986 +1 790
2017/02/02 120 196 +615
2017/02/01 119 581 +2 549
2017/01/31 117 032 +2 566
2017/01/30 114 466 +583
2017/01/29 113 883 +3 432
2017/01/28 110 451 +633
2017/01/27 109 818 +426
2017/01/26 109 392 +1 306
2017/01/25 108 086 -647
2017/01/24 108 733 -344
2017/01/23 109 077 +2 000
2017/01/22 107 077 -1 456
2017/01/21 108 533 +110
2017/01/20 108 423 +566
2017/01/19 107 857 +2 442
2017/01/18 105 415 +1 192
2017/01/17 104 223 -40
2017/01/16 104 263 -85
2017/01/15 104 348 -1 692
2017/01/14 106 040 +462
2017/01/13 105 578 -263
2017/01/12 105 841 +20
2017/01/11 105 821 +1 036
2017/01/10 104 785 +4
2017/01/09 104 781 -418
2017/01/08 105 199 -1 939
2017/01/07 107 138 +288
2017/01/06 106 850 +75
2017/01/05 106 775 -1 312
2017/01/04 108 087 +934
2017/01/03 107 153 -331
2017/01/02 107 484 +491
2017/01/01 106 993 -950
2016/12/31 107 943 -3 325
2016/12/30 111 268 +1 014
2016/12/29 110 254 -1 075
2016/12/28 111 329

WIDGET FOR YOUR SITE

DOMAINS WITH THE NEAREST RANK

Domain Rank
zivim.hr 119 697
javocado.com 119 698
iranidata.com 119 699
wen.co.il 119 700
bikae.net 119 701
greatcall.com 119 702
anime-tube.space 119 703
my.jobs 119 704
plan-it.be 119 705
letao.com.tw 119 706
smashinghub.com 119 707

DOMAINS WITH THE NEAREST RANK BY TLD .com

Domain Rank
grtyi.com 119 692
integrativenutrition.com 119 694
jiaobu365.com 119 696
javocado.com 119 698
iranidata.com 119 699
greatcall.com 119 702
smashinghub.com 119 707
jkgl001.com 119 708
cinematography.com 119 710
agriconomie.com 119 712
goupstate.com 119 714